Terminal Aerodrome Forecast
Issued by NWS Blacksburg, VA

Current Version | Previous Version | Text Only | Print | Product List | Glossary Off
Versions: 1 2 3 4 5 6 7 8 9 10 11 12 13 14 15 16 17

000
FTUS41 KRNK 151740
TAFBLF
TAF
KBLF 151740Z 1518/1618 31012G21KT 6SM -SHRASN SCT009 OVC015
     FM151900 31014G25KT 6SM -SHSN OVC009
     FM152300 31014G25KT P6SM OVC020
     FM160600 32007KT P6SM SCT020=

USA.gov is the U.S. government's official web portal to all federal, state and local government web resources and services.